Tiger — 9HA2271 — position and weather

sailwx.info

Track history (hours):
 
Tides and Currents Weather Stations Pressure Air Temp Water Temp Dewpoint Dewpoint Depression Visibility Wind Speed Wind Dir Waves Ship Positions

Tiger

Last reported at 2015-May-30 17:34 UTC. Time now 2015-May-30 18:34 UTC.
Position S 27°21' E 153°11'.

Length 232 m; draft 8.2 m.

Type: Cargo ship. MMSI: 248223000.

Date/timePositionNaut miles runAvg speedWind from/ knotsBaromVisibWave heightAir tempDewpointWater temp
2015-May-30 17:34S 27°21' E 153°11'1 1.3
2015-May-30 16:32S 27°23' E 153°10'0 0.0
2015-May-30 15:32S 27°23' E 153°10'0 0.0
2015-May-30 14:32S 27°23' E 153°10'0 0.0
2015-May-30 13:32S 27°23' E 153°10'0 0.0
2015-May-30 12:32S 27°23' E 153°10'0 0.0
2015-May-30 11:32S 27°23' E 153°10'0 0.0
2015-May-30 10:32S 27°23' E 153°10'0 0.0
2015-May-30 09:29S 27°23' E 153°10'0 0.0
2015-May-30 08:32S 27°23' E 153°10'0 0.0
2015-May-30 07:32S 27°23' E 153°10'0 0.1
2015-May-30 06:34S 27°23' E 153°10'8 7.9
2015-May-30 05:34S 27°16' E 153°15'1212.3
2015-May-30 04:33S 27°04' E 153°18'1616.4
2015-May-30 03:33S 26°50' E 153°09'1110.7
2015-May-30 02:33S 26°43' E 153°17'7 6.4
2015-May-30 01:31S 26°41' E 153°24'0 0.1
2015-May-30 00:17S 26°41' E 153°24'0 0.4
2015-May-29 23:33S 26°41' E 153°24'1 0.6
2015-May-29 22:33S 26°42' E 153°24'2 1.6
2015-May-29 21:33S 26°43' E 153°23'8 7.8
2015-May-29 20:33S 26°50' E 153°27'1211.8
2015-May-29 19:33S 26°55' E 153°38'1110.9
2015-May-29 18:33S 27°06' E 153°43'1414.2
2015-May-29 17:34S 27°20' E 153°44'1615.6
2015-May-29 16:33S 27°35' E 153°45'1515.5
2015-May-29 15:34S 27°51' E 153°47'1715.8
2015-May-29 14:30S 28°07' E 153°48'25815.2
2015-May-28 21:30S 32°20' E 152°48'1515.7
2015-May-28 20:34S 32°34' E 152°41'1615.8
2015-May-28 19:33S 32°47' E 152°31'1515.4
2015-May-28 18:33S 33°00' E 152°21'1515.1
2015-May-28 17:34S 33°13' E 152°11'256 7.3
2015-May-27 06:32S 37°09' E 150°13'1515.2
2015-May-27 05:32S 37°24' E 150°07'1615.8
2015-May-27 04:32S 37°38' E 149°57'1616.1
2015-May-27 03:33S 37°49' E 149°44'1616.2
2015-May-27 02:33S 38°01' E 149°29'1616.1
2015-May-27 01:33S 38°12' E 149°15'1716.7
2015-May-27 00:33S 38°22' E 148°58'1716.8
2015-May-26 23:33S 38°32' E 148°40'1716.7
2015-May-26 22:33S 38°42' E 148°23'1716.8
2015-May-26 21:33S 38°50' E 148°04'1717.0
2015-May-26 20:33S 38°56' E 147°44'1716.6
2015-May-26 19:33S 39°02' E 147°24'1616.2
2015-May-26 18:33S 39°08' E 147°04'1616.0
2015-May-26 17:33S 39°13' E 146°45'1615.9
2015-May-26 16:33S 39°17' E 146°25'1616.3
2015-May-26 15:33S 39°16' E 146°04'1717.1
2015-May-26 14:33S 39°06' E 145°46'1717.1
2015-May-26 13:33S 38°56' E 145°28'87 2.1
2015-May-24 19:20S 38°54' E 143°36'1111.7
2015-May-24 18:26S 38°57' E 143°23'1112.4
2015-May-24 17:31S 38°56' E 143°09'1313.5
2015-May-24 16:33S 38°54' E 142°52'1615.7
2015-May-24 15:33S 38°51' E 142°33'1615.6
2015-May-24 14:34S 38°48' E 142°13'1615.9
2015-May-24 13:33S 38°45' E 141°53'1716.3
2015-May-24 12:31S 38°42' E 141°32'3316.6
2015-May-24 10:32S 38°36' E 140°50'  
Track history (hours):
 
Tides and Currents Weather Stations Pressure Air Temp Water Temp Dewpoint Dewpoint Depression Visibility Wind Speed Wind Dir Waves Ship Positions

Tiger

Last reported at 2015-May-30 17:34 UTC. Time now 2015-May-30 18:34 UTC.
Position S 27°21' E 153°11'.

Length 232 m; draft 8.2 m.

Type: Cargo ship. MMSI: 248223000.

Date/timePositionNaut miles runAvg speedWind from/ knotsBaromVisibWave heightAir tempDewpointWater temp
2015-May-30 17:34S 27°21' E 153°11'1 1.3
2015-May-30 16:32S 27°23' E 153°10'0 0.0
2015-May-30 15:32S 27°23' E 153°10'0 0.0
2015-May-30 14:32S 27°23' E 153°10'0 0.0
2015-May-30 13:32S 27°23' E 153°10'0 0.0
2015-May-30 12:32S 27°23' E 153°10'0 0.0
2015-May-30 11:32S 27°23' E 153°10'0 0.0
2015-May-30 10:32S 27°23' E 153°10'0 0.0
2015-May-30 09:29S 27°23' E 153°10'0 0.0
2015-May-30 08:32S 27°23' E 153°10'0 0.0
2015-May-30 07:32S 27°23' E 153°10'0 0.1
2015-May-30 06:34S 27°23' E 153°10'8 7.9
2015-May-30 05:34S 27°16' E 153°15'1212.3
2015-May-30 04:33S 27°04' E 153°18'1616.4
2015-May-30 03:33S 26°50' E 153°09'1110.7
2015-May-30 02:33S 26°43' E 153°17'7 6.4
2015-May-30 01:31S 26°41' E 153°24'0 0.1
2015-May-30 00:17S 26°41' E 153°24'0 0.4
2015-May-29 23:33S 26°41' E 153°24'1 0.6
2015-May-29 22:33S 26°42' E 153°24'2 1.6
2015-May-29 21:33S 26°43' E 153°23'8 7.8
2015-May-29 20:33S 26°50' E 153°27'1211.8
2015-May-29 19:33S 26°55' E 153°38'1110.9
2015-May-29 18:33S 27°06' E 153°43'1414.2
2015-May-29 17:34S 27°20' E 153°44'1615.6
2015-May-29 16:33S 27°35' E 153°45'1515.5
2015-May-29 15:34S 27°51' E 153°47'1715.8
2015-May-29 14:30S 28°07' E 153°48'25815.2
2015-May-28 21:30S 32°20' E 152°48'1515.7
2015-May-28 20:34S 32°34' E 152°41'1615.8
2015-May-28 19:33S 32°47' E 152°31'1515.4
2015-May-28 18:33S 33°00' E 152°21'1515.1
2015-May-28 17:34S 33°13' E 152°11'256 7.3
2015-May-27 06:32S 37°09' E 150°13'1515.2
2015-May-27 05:32S 37°24' E 150°07'1615.8
2015-May-27 04:32S 37°38' E 149°57'1616.1
2015-May-27 03:33S 37°49' E 149°44'1616.2
2015-May-27 02:33S 38°01' E 149°29'1616.1
2015-May-27 01:33S 38°12' E 149°15'1716.7
2015-May-27 00:33S 38°22' E 148°58'1716.8
2015-May-26 23:33S 38°32' E 148°40'1716.7
2015-May-26 22:33S 38°42' E 148°23'1716.8
2015-May-26 21:33S 38°50' E 148°04'1717.0
2015-May-26 20:33S 38°56' E 147°44'1716.6
2015-May-26 19:33S 39°02' E 147°24'1616.2
2015-May-26 18:33S 39°08' E 147°04'1616.0
2015-May-26 17:33S 39°13' E 146°45'1615.9
2015-May-26 16:33S 39°17' E 146°25'1616.3
2015-May-26 15:33S 39°16' E 146°04'1717.1
2015-May-26 14:33S 39°06' E 145°46'1717.1
2015-May-26 13:33S 38°56' E 145°28'87 2.1
2015-May-24 19:20S 38°54' E 143°36'1111.7
2015-May-24 18:26S 38°57' E 143°23'1112.4
2015-May-24 17:31S 38°56' E 143°09'1313.5
2015-May-24 16:33S 38°54' E 142°52'1615.7
2015-May-24 15:33S 38°51' E 142°33'1615.6
2015-May-24 14:34S 38°48' E 142°13'1615.9
2015-May-24 13:33S 38°45' E 141°53'1716.3
2015-May-24 12:31S 38°42' E 141°32'3316.6
2015-May-24 10:32S 38°36' E 140°50'  

Dump ship's entire track history